Time;durP1;ratioP1;P1;durP2;ratioP2;P2;SDS_P1;SDS_P2;PMS_P1;PMS_P2;Temp;Humidity;BMP_temperature;BMP_pressure;BME280_temperature;BME280_humidity;BME280_pressure;Samples;Min_cycle;Max_cycle;Signal;HPM_P1;HPM_P2
2024/01/09 00:00:00;;;;;;;15.27;8.40;;;;;;;2.39;97.29;99760.41;3119874;28;20068;-75
2024/01/09 00:01:30;;;;;;;13.57;8.05;;;;;;;2.05;97.34;99710.28;3120240;28;20049;-76
2024/01/09 00:03:04;;;;;;;16.50;8.57;;;;;;;2.53;97.48;99783.38;3119997;28;20045;-76
2024/01/09 00:04:34;;;;;;;;;;;;;;;2.38;97.71;99792.97;3120793;28;20431;-74
2024/01/09 00:06:06;;;;;;;16.35;7.70;;;;;;;2.41;98.09;99795.50;3120070;28;20023;-76
2024/01/09 00:07:37;;;;;;;16.73;7.90;;;;;;;2.43;97.99;99792.94;3119997;28;20079;-75
2024/01/09 00:09:09;;;;;;;19.80;9.10;;;;;;;2.39;97.91;99792.09;3119988;28;20053;-75
2024/01/09 00:10:41;;;;;;;13.88;8.25;;;;;;;2.40;98.05;99791.25;3119944;28;20056;-74
2024/01/09 00:12:13;;;;;;;16.13;8.70;;;;;;;2.41;98.19;99795.50;3120154;28;20053;-76
2024/01/09 00:13:44;;;;;;;14.30;7.57;;;;;;;2.43;98.16;99788.63;3115057;28;20486;-70
2024/01/09 00:15:15;;;;;;;15.63;7.90;;;;;;;2.44;98.27;99786.91;3114776;28;20056;-70
2024/01/09 00:16:46;;;;;;;17.77;8.07;;;;;;;2.43;98.19;99793.78;3115041;28;20637;-70
2024/01/09 00:18:18;;;;;;;14.60;8.63;;;;;;;2.41;98.15;99795.50;3114880;28;20046;-70
2024/01/09 00:19:49;;;;;;;14.88;8.15;;;;;;;2.37;98.20;99796.44;3114765;28;20054;-70
2024/01/09 00:21:21;;;;;;;15.73;8.07;;;;;;;2.34;98.13;99799.03;3115209;28;20505;-69
2024/01/09 00:22:52;;;;;;;14.43;7.97;;;;;;;2.32;98.17;99799.91;3114789;28;20143;-69
2024/01/09 00:24:24;;;;;;;15.23;7.93;;;;;;;2.25;98.44;99789.72;3114814;28;20057;-70
2024/01/09 00:25:56;;;;;;;13.43;7.28;;;;;;;2.34;98.45;99803.28;3114857;28;20557;-70
2024/01/09 00:27:28;;;;;;;13.15;7.25;;;;;;;1.94;98.39;99749.81;3114537;28;20057;-69
2024/01/09 00:28:59;;;;;;;15.20;8.43;;;;;;;2.29;98.77;99808.50;3114983;28;20064;-70
2024/01/09 00:30:31;;;;;;;11.70;6.85;;;;;;;2.29;98.85;99813.66;3117074;28;20053;-70
2024/01/09 00:32:02;;;;;;;13.65;7.10;;;;;;;2.26;98.63;99816.25;3114770;28;20758;-69
2024/01/09 00:33:34;;;;;;;12.35;6.97;;;;;;;2.25;98.76;99825.69;3114660;28;20072;-68
2024/01/09 00:35:06;;;;;;;13.90;6.90;;;;;;;1.53;98.72;99715.13;3114709;28;20060;-70
2024/01/09 00:36:43;;;;;;;12.13;7.25;;;;;;;1.65;98.45;99755.25;3114840;28;20081;-70
2024/01/09 00:38:14;;;;;;;13.23;7.53;;;;;;;2.14;98.67;99824.94;3102478;28;20053;-68
2024/01/09 00:39:46;;;;;;;14.05;7.53;;;;;;;2.11;98.59;99830.13;3114756;28;20093;-68
2024/01/09 00:41:18;;;;;;;13.77;7.60;;;;;;;2.10;98.67;99828.41;3114564;28;20056;-68
2024/01/09 00:42:50;;;;;;;12.88;7.55;;;;;;;2.08;98.57;99832.72;3114629;28;20056;-69
2024/01/09 00:44:21;;;;;;;13.93;7.38;;;;;;;1.97;98.59;99832.81;3114345;28;20046;-69
2024/01/09 00:45:52;;;;;;;12.40;6.80;;;;;;;1.98;98.40;99839.66;3114535;28;20057;-68
2024/01/09 00:47:23;;;;;;;12.10;7.40;;;;;;;1.96;98.31;99835.41;3114336;28;20061;-68
2024/01/09 00:48:55;;;;;;;12.75;7.50;;;;;;;1.89;98.56;99829.44;3114523;28;20114;-70
2024/01/09 00:50:26;;;;;;;13.38;7.03;;;;;;;1.89;98.69;99836.31;3114127;28;20152;-69
2024/01/09 00:51:58;;;;;;;12.75;7.13;;;;;;;1.88;98.60;99832.91;3114636;28;20144;-69
2024/01/09 00:53:29;;;;;;;14.85;7.25;;;;;;;1.86;98.94;99842.31;3114451;28;20826;-69
2024/01/09 00:55:01;;;;;;;13.30;7.72;;;;;;;1.88;99.08;99838.03;3114127;28;20053;-70
2024/01/09 00:56:33;;;;;;;13.93;8.05;;;;;;;1.84;98.94;99832.97;3114740;28;20053;-70
2024/01/09 00:58:05;;;;;;;14.10;7.80;;;;;;;1.86;99.08;99836.34;3114291;28;20081;-74
2024/01/09 00:59:35;;;;;;;15.98;7.68;;;;;;;1.83;99.07;99847.47;3114269;28;20057;-73
2024/01/09 01:01:07;;;;;;;15.85;8.23;;;;;;;1.86;99.23;99856.88;3112826;28;20586;-74
2024/01/09 01:02:38;;;;;;;16.13;8.60;;;;;;;1.86;99.17;99850.03;3103481;28;20068;-74
2024/01/09 01:04:10;;;;;;;14.50;7.93;;;;;;;1.84;99.25;99854.34;3114409;28;20786;-74
2024/01/09 01:05:41;;;;;;;13.13;6.97;;;;;;;1.80;98.98;99853.53;3114583;28;20071;-74
2024/01/09 01:07:13;;;;;;;12.60;7.25;;;;;;;1.76;99.21;99849.25;3113885;28;20125;-74
2024/01/09 01:08:44;;;;;;;15.02;7.85;;;;;;;1.76;99.45;99853.56;3104151;28;20054;-74
2024/01/09 01:10:16;;;;;;;15.90;8.00;;;;;;;1.75;99.53;99855.28;3112270;28;20057;-74
2024/01/09 01:11:48;;;;;;;14.20;8.15;;;;;;;1.79;99.65;99859.50;3114145;28;20119;-68
2024/01/09 01:13:20;;;;;;;15.63;7.78;;;;;;;1.77;99.28;99852.69;3114527;28;20053;-69
2024/01/09 01:14:51;;;;;;;15.10;8.35;;;;;;;1.74;99.52;99857.84;3114218;28;20538;-66
2024/01/09 01:16:23;;;;;;;17.05;8.88;;;;;;;1.73;99.67;99854.44;3114372;28;20172;-69
2024/01/09 01:17:54;;;;;;;16.23;8.82;;;;;;;1.70;99.52;99856.16;3114291;28;20057;-69
2024/01/09 01:19:25;;;;;;;16.23;9.10;;;;;;;1.68;99.65;99863.03;3114376;28;20555;-68
2024/01/09 01:20:56;;;;;;;17.77;8.45;;;;;;;1.66;99.62;99860.50;3114204;28;20111;-68
2024/01/09 01:22:28;;;;;;;16.23;8.43;;;;;;;1.64;99.36;99864.78;3113988;28;20053;-68
2024/01/09 01:23:59;;;;;;;15.57;7.93;;;;;;;1.61;99.39;99871.66;3112473;28;20812;-68
2024/01/09 01:25:31;;;;;;;14.50;7.85;;;;;;;1.57;99.40;99865.69;3114385;28;20136;-67
2024/01/09 01:27:04;;;;;;;14.38;7.70;;;;;;;1.55;99.44;99862.28;3110944;28;20060;-67
2024/01/09 01:28:37;;;;;;;14.02;7.75;;;;;;;1.51;99.36;99868.28;3114337;28;20522;-68
2024/01/09 01:30:08;;;;;;;14.25;7.75;;;;;;;1.46;99.74;99876.03;3114074;28;20049;-67
2024/01/09 01:31:40;;;;;;;15.18;8.07;;;;;;;1.49;99.76;99890.56;3114265;28;20050;-67
2024/01/09 01:33:11;;;;;;;17.23;8.52;;;;;;;1.45;99.42;99887.16;3113706;28;20053;-67
2024/01/09 01:34:43;;;;;;;15.88;8.05;;;;;;;1.41;99.54;99882.91;3113942;28;20049;-67
2024/01/09 01:36:14;;;;;;;16.45;8.73;;;;;;;1.40;99.54;99900.88;3114175;28;20159;-66
2024/01/09 01:37:46;;;;;;;15.80;7.93;;;;;;;1.38;99.53;99890.63;3114103;28;20049;-68
2024/01/09 01:39:16;;;;;;;12.85;7.45;;;;;;;1.32;99.41;99900.91;3114238;28;20053;-67
2024/01/09 01:40:49;;;;;;;14.52;7.85;;;;;;;1.28;99.36;99894.13;3114126;28;20058;-67
2024/01/09 01:42:21;;;;;;;16.15;8.85;;;;;;;1.22;99.21;99905.25;3114172;28;20053;-68
2024/01/09 01:43:53;;;;;;;16.42;9.05;;;;;;;1.17;99.15;99895.88;3113937;28;20505;-72
2024/01/09 01:45:24;;;;;;;15.50;8.35;;;;;;;1.15;99.15;99901.00;3113945;28;20143;-69
2024/01/09 01:46:56;;;;;;;21.52;8.80;;;;;;;1.15;99.25;99903.56;3114255;28;20087;-70
2024/01/09 01:48:28;;;;;;;15.35;8.25;;;;;;;1.11;99.14;99901.88;3114315;28;20049;-70
2024/01/09 01:50:00;;;;;;;17.23;9.18;;;;;;;1.10;99.21;99901.03;3114016;28;20297;-70
2024/01/09 01:51:31;;;;;;;17.45;8.90;;;;;;;1.05;99.01;99902.78;3113764;28;20507;-69
2024/01/09 01:53:04;;;;;;;18.38;9.60;;;;;;;0.51;98.99;99825.25;3114143;28;20156;-70
2024/01/09 01:54:36;;;;;;;;;;;;;;;0.86;99.20;99886.63;3114768;28;20525;-71
2024/01/09 01:56:08;;;;;;;17.10;8.70;;;;;;;0.89;99.72;99888.34;3114181;28;19929;-69
2024/01/09 01:57:42;;;;;;;15.93;8.52;;;;;;;0.89;99.71;99878.09;3113899;28;20454;-70
2024/01/09 01:59:18;;;;;;;17.63;8.80;;;;;;;0.89;99.78;99876.38;3113796;28;20107;-69
2024/01/09 02:00:49;;;;;;;14.70;8.48;;;;;;;0.91;100.00;99879.75;3113542;28;20520;-70
2024/01/09 02:02:21;;;;;;;17.00;8.07;;;;;;;0.94;99.98;99872.91;3113816;28;20064;-70
2024/01/09 02:03:52;;;;;;;15.65;7.68;;;;;;;0.91;100.00;99872.06;3115822;28;20639;-70
2024/01/09 02:05:26;;;;;;;15.85;7.97;;;;;;;0.92;100.00;99880.63;3114080;28;20062;-69
2024/01/09 02:06:58;;;;;;;16.42;8.55;;;;;;;0.92;99.95;99878.06;3114120;28;20305;-70
2024/01/09 02:08:31;;;;;;;18.40;8.93;;;;;;;0.89;99.92;99876.38;3114206;28;20049;-69
2024/01/09 02:10:02;;;;;;;17.13;8.95;;;;;;;0.84;99.98;99877.25;3113911;28;20056;-70
2024/01/09 02:11:34;;;;;;;15.63;8.38;;;;;;;0.85;100.00;99873.81;3113963;28;20049;-70
2024/01/09 02:13:07;;;;;;;16.08;8.32;;;;;;;0.84;99.93;99877.25;3114112;28;20079;-70
2024/01/09 02:14:40;;;;;;;19.92;9.70;;;;;;;0.79;100.00;99873.84;3113696;28;20061;-70
2024/01/09 02:16:11;;;;;;;;;;;;;;;0.62;100.00;99872.22;3114416;28;20436;-70
2024/01/09 02:17:43;;;;;;;15.63;8.18;;;;;;;0.65;100.00;99874.75;3113989;28;19936;-70
2024/01/09 02:19:14;;;;;;;17.45;8.95;;;;;;;0.69;100.00;99875.59;3114093;28;20126;-70
2024/01/09 02:20:45;;;;;;;16.98;9.27;;;;;;;0.68;100.00;99894.38;3116577;28;20057;-70
2024/01/09 02:22:16;;;;;;;20.88;10.10;;;;;;;0.65;100.00;99877.31;3115800;28;20854;-69
2024/01/09 02:23:49;;;;;;;21.10;9.70;;;;;;;0.66;100.00;99881.56;3116153;28;20218;-69
2024/01/09 02:25:20;;;;;;;18.80;9.05;;;;;;;0.67;100.00;99879.88;3116184;28;20490;-69
2024/01/09 02:27:01;;;;;;;16.23;8.50;;;;;;;0.65;100.00;99890.13;3104099;28;20431;-69
2024/01/09 02:28:39;;;;;;;21.33;9.45;;;;;;;0.62;100.00;99896.97;3104121;28;20050;-70
2024/01/09 02:30:12;;;;;;;18.50;9.57;;;;;;;0.58;100.00;99896.13;3104177;28;20304;-71
2024/01/09 02:31:43;;;;;;;21.70;10.50;;;;;;;0.55;100.00;99898.69;3104141;28;20229;-72
2024/01/09 02:33:15;;;;;;;16.50;8.80;;;;;;;0.54;99.80;99901.28;3115837;28;20470;-73
2024/01/09 02:34:48;;;;;;;19.70;9.57;;;;;;;0.52;99.55;99893.56;3116072;28;20053;-71
2024/01/09 02:36:20;;;;;;;17.00;8.70;;;;;;;0.42;99.77;99892.75;3115878;28;20053;-71
2024/01/09 02:37:50;;;;;;;20.60;9.60;;;;;;;0.44;99.78;99903.00;3116044;28;20064;-71
2024/01/09 02:39:22;;;;;;;18.05;9.60;;;;;;;0.38;99.55;99888.47;3116046;28;20053;-70
2024/01/09 02:40:53;;;;;;;20.50;10.15;;;;;;;0.32;99.73;99872.28;3115870;28;20570;-70
2024/01/09 02:42:25;;;;;;;16.63;9.45;;;;;;;0.42;99.61;99897.88;3116129;28;20053;-71
2024/01/09 02:43:56;;;;;;;18.45;9.13;;;;;;;0.41;99.48;99878.25;3115514;28;20049;-72
2024/01/09 02:45:29;;;;;;;19.15;10.00;;;;;;;0.41;99.78;99877.38;3116113;28;20122;-72
2024/01/09 02:47:00;;;;;;;22.00;10.10;;;;;;;0.37;99.69;99873.97;3115882;28;20448;-73
2024/01/09 02:48:32;;;;;;;17.38;9.50;;;;;;;0.36;99.75;99867.16;3115893;28;20088;-72
2024/01/09 02:50:03;;;;;;;17.17;9.02;;;;;;;0.37;99.74;99876.53;3115933;28;20201;-73
2024/01/09 02:51:35;;;;;;;17.95;9.57;;;;;;;0.35;99.68;99867.16;3115897;28;20068;-73
2024/01/09 02:53:05;;;;;;;19.35;9.68;;;;;;;0.36;99.68;99874.00;3115893;28;20160;-73
2024/01/09 02:54:37;;;;;;;17.45;9.38;;;;;;;0.35;99.60;99883.38;3115928;28;20073;-72
2024/01/09 02:56:10;;;;;;;15.07;8.43;;;;;;;0.34;99.38;99903.88;3115788;28;20595;-72
2024/01/09 02:57:40;;;;;;;15.85;8.35;;;;;;;0.28;99.33;99912.44;3109394;28;20205;-74
2024/01/09 02:59:12;;;;;;;20.17;9.02;;;;;;;0.27;99.43;99920.97;3115641;28;20620;-74
2024/01/09 03:00:45;;;;;;;18.17;9.27;;;;;;;0.26;99.40;99923.53;3115656;28;20510;-72
2024/01/09 03:02:16;;;;;;;17.23;9.13;;;;;;;0.07;99.33;99897.09;3115711;28;20050;-70
2024/01/09 03:03:47;;;;;;;21.48;9.38;;;;;;;0.28;99.50;99926.94;3115663;28;20569;-70
2024/01/09 03:05:19;;;;;;;22.08;10.15;;;;;;;0.26;99.47;99926.94;3115705;28;20570;-71
2024/01/09 03:06:50;;;;;;;21.58;10.30;;;;;;;0.29;99.44;99934.63;3115808;28;20061;-71
2024/01/09 03:08:22;;;;;;;17.75;9.52;;;;;;;0.22;99.32;99926.09;3115509;28;20529;-70
2024/01/09 03:09:54;;;;;;;20.10;9.95;;;;;;;0.26;99.48;99944.00;3115680;28;20064;-71
2024/01/09 03:11:26;;;;;;;21.70;10.32;;;;;;;0.27;99.29;99945.72;3115610;28;20054;-70
2024/01/09 03:12:57;;;;;;;20.27;10.02;;;;;;;0.23;99.04;99935.47;3115591;28;20056;-70
2024/01/09 03:14:29;;;;;;;18.25;9.38;;;;;;;0.20;99.06;99932.91;3115201;28;20568;-71
2024/01/09 03:16:02;;;;;;;21.33;9.85;;;;;;;0.19;99.03;99941.47;3115512;28;20057;-71
2024/01/09 03:17:34;;;;;;;20.02;9.85;;;;;;;0.14;98.72;99940.59;3115709;28;20486;-71
2024/01/09 03:19:05;;;;;;;20.38;9.98;;;;;;;0.07;98.60;99948.31;3117996;28;20483;-71
2024/01/09 03:20:36;;;;;;;20.02;9.00;;;;;;;0.01;98.74;99958.53;3115645;28;20100;-76
2024/01/09 03:22:07;;;;;;;19.20;10.32;;;;;;;-0.04;98.61;99961.09;3115212;28;20057;-75
2024/01/09 03:23:39;;;;;;;24.73;10.32;;;;;;;-0.06;98.88;99960.22;3115519;28;20111;-77
2024/01/09 03:25:10;;;;;;;19.65;10.10;;;;;;;-0.07;98.89;99961.09;3115900;28;20053;-76
2024/01/09 03:26:42;;;;;;;22.02;10.38;;;;;;;-0.10;98.78;99961.09;3115254;28;20049;-74
2024/01/09 03:28:13;;;;;;;21.75;10.90;;;;;;;-0.11;98.88;99964.50;3114596;28;20057;-75
2024/01/09 03:29:45;;;;;;;20.35;10.07;;;;;;;-0.13;99.03;99958.53;3113277;28;20201;-77
2024/01/09 03:31:21;;;;;;;23.95;11.38;;;;;;;-0.13;99.09;99959.38;3114918;28;20049;-75
2024/01/09 03:32:53;;;;;;;23.55;11.05;;;;;;;-0.20;98.89;99950.00;3115379;28;20384;-75
2024/01/09 03:34:23;;;;;;;24.42;12.00;;;;;;;-0.25;99.05;99955.09;3115103;28;20139;-75
2024/01/09 03:35:55;;;;;;;27.35;12.05;;;;;;;-0.21;98.85;99962.78;3115260;28;20140;-74
2024/01/09 03:37:27;;;;;;;27.83;11.60;;;;;;;-0.31;98.94;99949.13;3115260;28;20061;-76
2024/01/09 03:38:58;;;;;;;26.98;12.30;;;;;;;-0.26;98.75;99958.53;3115181;28;20053;-74
2024/01/09 03:40:30;;;;;;;27.45;10.65;;;;;;;-0.33;98.97;99956.78;3113882;28;20482;-75
2024/01/09 03:42:02;;;;;;;22.83;9.55;;;;;;;-0.30;99.02;99978.97;3115160;28;20776;-74
2024/01/09 03:43:33;;;;;;;19.58;9.63;;;;;;;-0.34;98.83;99982.38;3115274;28;20123;-75
2024/01/09 03:45:07;;;;;;;20.42;10.02;;;;;;;-0.36;98.76;99989.19;3115081;28;20053;-76
2024/01/09 03:46:39;;;;;;;23.50;10.98;;;;;;;-0.38;99.09;100009.69;3115426;28;20096;-75
2024/01/09 03:48:11;;;;;;;21.35;9.85;;;;;;;-0.56;99.06;99982.34;3115160;28;20769;-76
2024/01/09 03:49:42;;;;;;;21.00;10.30;;;;;;;-0.48;99.31;100008.78;3115489;28;20068;-76
2024/01/09 03:51:14;;;;;;;23.55;10.55;;;;;;;-0.41;99.28;100022.47;3115377;28;20111;-75
2024/01/09 03:52:45;;;;;;;22.65;10.75;;;;;;;-0.38;98.95;100029.31;3115391;28;20053;-75
2024/01/09 03:54:17;;;;;;;21.88;9.85;;;;;;;-0.40;98.98;100021.59;3115214;28;20088;-75
2024/01/09 03:55:48;;;;;;;21.95;10.18;;;;;;;-0.42;99.06;100041.22;3115102;28;20061;-75
2024/01/09 03:57:20;;;;;;;24.45;10.43;;;;;;;-0.45;98.73;100025.84;3115215;28;20831;-75
2024/01/09 03:58:51;;;;;;;23.77;10.68;;;;;;;-0.46;98.88;100027.56;3115068;28;20561;-78
2024/01/09 04:00:23;;;;;;;27.40;10.80;;;;;;;-0.48;99.00;100026.69;3115702;28;20111;-75
2024/01/09 04:01:55;;;;;;;29.33;11.80;;;;;;;-0.47;99.00;100017.34;3115238;28;20050;-76
2024/01/09 04:03:27;;;;;;;23.13;11.43;;;;;;;-0.66;98.65;100000.22;3115087;28;20439;-75
2024/01/09 04:04:58;;;;;;;24.67;10.93;;;;;;;-0.50;98.60;100032.69;3115947;28;20518;-77
2024/01/09 04:06:30;;;;;;;24.92;10.80;;;;;;;-0.56;98.69;100030.06;3115415;28;20136;-77
2024/01/09 04:08:01;;;;;;;24.75;11.60;;;;;;;-0.57;98.69;100029.22;3115078;28;20050;-76
2024/01/09 04:09:38;;;;;;;23.20;10.30;;;;;;;-0.58;98.75;100024.13;3116263;28;20045;-74
2024/01/09 04:11:09;;;;;;;18.83;9.43;;;;;;;-1.01;98.28;99962.56;3115375;28;20059;-74
2024/01/09 04:12:41;;;;;;;21.13;9.82;;;;;;;-0.71;98.37;100024.06;3114878;28;20111;-76
2024/01/09 04:14:12;;;;;;;20.85;10.20;;;;;;;-0.75;98.25;100031.72;3115030;28;20143;-77
2024/01/09 04:15:44;;;;;;;26.10;12.10;;;;;;;-0.79;98.27;100038.53;3114796;28;20060;-77
2024/01/09 04:17:17;;;;;;;23.35;10.77;;;;;;;-0.78;98.24;100041.94;3115130;28;20053;-77
2024/01/09 04:18:48;;;;;;;;;;;;;;;-0.91;98.03;100048.69;3103679;28;20060;-77
2024/01/09 04:20:20;;;;;;;25.30;9.25;;;;;;;-0.95;98.35;100055.50;3114500;28;19925;-75
2024/01/09 04:21:51;;;;;;;26.67;10.63;;;;;;;-0.93;98.58;100055.47;3114917;28;20052;-74
2024/01/09 04:23:23;;;;;;;24.55;10.75;;;;;;;-0.95;98.53;100059.72;3115483;28;20049;-76
2024/01/09 04:24:54;;;;;;;25.40;11.85;;;;;;;-0.99;98.53;100046.09;3115281;28;20060;-76
2024/01/09 04:26:26;;;;;;;30.85;12.00;;;;;;;-0.96;98.63;100047.81;3115353;28;20542;-75
2024/01/09 04:27:57;;;;;;;25.85;12.68;;;;;;;-0.97;98.81;100046.94;3114760;28;20111;-69
2024/01/09 04:29:29;;;;;;;24.52;12.30;;;;;;;-0.94;98.93;100052.09;3114372;28;20178;-69
2024/01/09 04:31:01;;;;;;;25.73;11.15;;;;;;;-1.07;98.83;100037.50;3114792;28;20057;-69
2024/01/09 04:32:33;;;;;;;27.08;11.80;;;;;;;-0.96;98.68;100058.88;3114763;28;20049;-69
2024/01/09 04:34:05;;;;;;;26.02;11.55;;;;;;;-1.01;98.67;100057.13;3114725;28;20053;-70
2024/01/09 04:35:36;;;;;;;24.63;11.45;;;;;;;-1.00;98.82;100063.97;3114553;28;20049;-70
2024/01/09 04:37:07;;;;;;;25.40;10.68;;;;;;;-1.09;98.65;100072.44;3114445;28;20571;-69
2024/01/09 04:38:38;;;;;;;26.92;11.48;;;;;;;-1.06;98.84;100074.16;3114413;28;20745;-70
2024/01/09 04:40:11;;;;;;;22.63;9.48;;;;;;;-1.17;98.78;100059.59;3114684;28;20056;-69
2024/01/09 04:41:42;;;;;;;25.07;10.90;;;;;;;-1.16;98.96;100070.69;3114331;28;20531;-71
2024/01/09 04:43:13;;;;;;;24.85;11.55;;;;;;;-1.18;98.77;100064.72;3106736;28;20331;-71
2024/01/09 04:44:44;;;;;;;24.55;10.80;;;;;;;-1.19;98.36;100078.31;3111298;28;20365;-70
2024/01/09 04:46:16;;;;;;;26.23;10.75;;;;;;;-1.21;98.49;100088.56;3114644;28;20060;-71
2024/01/09 04:47:48;;;;;;;28.40;12.02;;;;;;;-1.33;98.47;100074.81;3114566;28;20107;-70
2024/01/09 04:49:20;;;;;;;30.48;12.70;;;;;;;-1.25;98.24;100096.16;3114555;28;20344;-70
2024/01/09 04:50:52;;;;;;;26.20;11.77;;;;;;;-1.32;98.43;100102.94;3114643;28;20061;-69
2024/01/09 04:52:23;;;;;;;27.45;12.15;;;;;;;-1.32;98.68;100081.66;3114560;28;20065;-70
2024/01/09 04:53:55;;;;;;;28.90;12.82;;;;;;;-1.32;98.45;100097.81;3114381;28;20057;-70
2024/01/09 04:55:26;;;;;;;24.55;11.82;;;;;;;-1.36;98.56;100085.88;3114527;28;20053;-71
2024/01/09 04:56:58;;;;;;;28.92;13.02;;;;;;;-1.37;98.67;100097.78;3114339;28;20106;-70
2024/01/09 04:58:30;;;;;;;27.08;10.45;;;;;;;-1.39;98.56;100090.94;3108705;28;20056;-71
2024/01/09 05:00:02;;;;;;;26.15;11.88;;;;;;;-1.43;98.47;100097.72;3114278;28;20053;-72
2024/01/09 05:01:34;;;;;;;25.85;9.57;;;;;;;-1.40;98.30;100097.75;3107935;28;20059;-73
2024/01/09 05:03:06;;;;;;;23.83;10.00;;;;;;;-1.43;98.54;100105.41;3108920;28;20050;-73
2024/01/09 05:04:39;;;;;;;26.85;10.82;;;;;;;-1.43;98.55;100114.75;3112678;28;20053;-73
2024/01/09 05:06:11;;;;;;;29.35;12.05;;;;;;;-1.45;98.49;100106.22;3114406;28;20057;-73
2024/01/09 05:07:42;;;;;;;29.70;12.77;;;;;;;-1.48;98.74;100101.09;3114282;28;20082;-73
2024/01/09 05:09:14;;;;;;;28.73;11.80;;;;;;;-1.45;98.84;100119.88;3114102;28;20232;-73
2024/01/09 05:10:44;;;;;;;31.65;12.93;;;;;;;-1.44;98.85;100116.47;3111113;28;20056;-74
2024/01/09 05:12:16;;;;;;;25.33;11.80;;;;;;;-1.45;98.72;100124.97;3109892;28;20054;-74
2024/01/09 05:13:47;;;;;;;23.85;11.43;;;;;;;-1.48;98.82;100118.97;3111080;28;20065;-73
2024/01/09 05:15:19;;;;;;;29.10;10.95;;;;;;;-1.50;98.67;100136.00;3114160;28;20061;-68
2024/01/09 05:16:50;;;;;;;26.63;12.43;;;;;;;-1.52;98.72;100142.78;3113851;28;20111;-70
2024/01/09 05:18:23;;;;;;;26.77;11.93;;;;;;;-1.54;98.79;100144.44;3114329;28;20520;-69
2024/01/09 05:19:54;;;;;;;26.90;12.80;;;;;;;-1.59;98.82;100141.03;3114309;28;20054;-70
2024/01/09 05:21:26;;;;;;;27.88;12.30;;;;;;;-1.59;98.77;100139.31;3114261;28;20053;-70
2024/01/09 05:22:57;;;;;;;27.42;12.10;;;;;;;-1.58;98.83;100153.78;3113935;28;20099;-73
2024/01/09 05:24:29;;;;;;;29.95;12.75;;;;;;;-1.55;98.76;100142.75;3113878;28;20178;-72
2024/01/09 05:26:00;;;;;;;28.23;12.02;;;;;;;-1.63;98.87;100138.44;3113975;28;20120;-73
2024/01/09 05:27:31;;;;;;;31.27;13.60;;;;;;;-1.59;98.95;100138.47;3114369;28;20177;-69
2024/01/09 05:29:02;;;;;;;30.65;14.32;;;;;;;-1.68;98.85;100118.81;3114205;28;20510;-64
2024/01/09 05:30:34;;;;;;;34.75;14.82;;;;;;;-1.58;98.91;100141.03;3114073;28;20056;-65
2024/01/09 05:32:06;;;;;;;30.30;13.70;;;;;;;-1.58;98.82;100142.72;3114030;28;20515;-71
2024/01/09 05:33:39;;;;;;;34.53;14.00;;;;;;;-1.60;99.02;100145.25;3110827;28;20053;-72
2024/01/09 05:35:11;;;;;;;29.70;13.45;;;;;;;-1.61;99.01;100138.44;3114040;28;20065;-70
2024/01/09 05:36:42;;;;;;;35.30;14.63;;;;;;;-1.68;99.03;100137.53;3111933;28;20064;-72
2024/01/09 05:38:14;;;;;;;31.50;14.35;;;;;;;-1.61;98.93;100141.84;3114403;28;20057;-69
2024/01/09 05:39:45;;;;;;;29.15;14.00;;;;;;;-2.19;98.85;100051.94;3114402;28;20057;-70
2024/01/09 05:41:20;;;;;;;31.33;14.25;;;;;;;-1.63;99.03;100135.00;3114483;28;20128;-72
2024/01/09 05:42:51;;;;;;;37.20;14.98;;;;;;;-1.56;99.08;100152.13;3114563;28;20586;-75
2024/01/09 05:44:23;;;;;;;34.90;15.25;;;;;;;-1.53;99.21;100153.84;3113946;28;20060;-75
2024/01/09 05:45:54;;;;;;;28.77;12.70;;;;;;;-1.53;99.22;100167.47;3114328;28;20099;-69
2024/01/09 05:47:26;;;;;;;33.95;14.55;;;;;;;-1.56;99.01;100158.94;3114546;28;20120;-67
2024/01/09 05:48:58;;;;;;;33.75;13.98;;;;;;;-1.49;99.39;100155.59;3110194;28;20053;-70
2024/01/09 05:50:30;;;;;;;27.63;11.30;;;;;;;-1.46;99.72;100160.72;3108040;28;20084;-68
2024/01/09 05:52:01;;;;;;;38.22;15.85;;;;;;;-1.42;99.57;100155.66;3108092;28;20057;-69
2024/01/09 05:53:33;;;;;;;39.42;15.60;;;;;;;-1.38;99.55;100159.09;3108018;28;20127;-70
2024/01/09 05:55:06;;;;;;;33.63;15.50;;;;;;;-1.34;99.52;100168.47;3112991;28;20057;-69
2024/01/09 05:56:37;;;;;;;29.45;13.32;;;;;;;-1.34;99.27;100172.75;3112413;28;20365;-69
2024/01/09 05:58:09;;;;;;;31.33;14.60;;;;;;;-1.32;99.54;100177.03;3114503;28;20053;-70
2024/01/09 05:59:40;;;;;;;34.75;16.13;;;;;;;-1.32;99.40;100182.13;3107887;28;20054;-69
2024/01/09 06:01:12;;;;;;;37.92;16.02;;;;;;;-1.32;99.24;100181.28;3111411;28;20379;-67
2024/01/09 06:02:44;;;;;;;33.63;15.35;;;;;;;-1.32;99.31;100182.13;3115784;28;20102;-70
2024/01/09 06:04:21;;;;;;;34.67;16.35;;;;;;;-1.39;99.18;100177.81;3112950;28;20049;-67
2024/01/09 06:05:52;;;;;;;38.90;16.20;;;;;;;-1.39;98.98;100188.00;3108639;28;20515;-68
2024/01/09 06:07:24;;;;;;;38.47;16.42;;;;;;;-1.43;99.21;100196.50;3120285;28;20136;-67
2024/01/09 06:08:55;;;;;;;41.15;16.98;;;;;;;-1.44;98.97;100194.81;3121984;28;20045;-67
2024/01/09 06:10:27;;;;;;;39.30;18.25;;;;;;;-1.44;98.90;100202.47;3121660;28;20463;-67
2024/01/09 06:11:58;;;;;;;51.95;20.00;;;;;;;-1.50;98.82;100193.03;3120968;28;20049;-69
2024/01/09 06:13:30;;;;;;;52.15;21.25;;;;;;;-1.53;98.83;100208.34;3121694;28;20057;-69
2024/01/09 06:15:00;;;;;;;46.38;19.80;;;;;;;-1.53;99.14;100210.03;3121259;28;20522;-66
2024/01/09 06:16:32;;;;;;;43.15;18.30;;;;;;;-1.50;98.97;100207.50;3121649;28;20151;-67
2024/01/09 06:18:03;;;;;;;44.08;19.73;;;;;;;-1.49;99.07;100220.28;3120651;28;20053;-68
2024/01/09 06:19:37;;;;;;;50.83;20.77;;;;;;;-1.49;98.80;100227.09;3121392;28;20530;-66
2024/01/09 06:21:07;;;;;;;;;;;;;;;-1.61;98.95;100226.13;3121970;28;20561;-72
2024/01/09 06:22:39;;;;;;;51.22;21.45;;;;;;;-1.64;99.00;100215.88;3121741;28;19929;-72
2024/01/09 06:24:10;;;;;;;50.95;20.20;;;;;;;-1.59;98.91;100227.84;3121442;28;20112;-68
2024/01/09 06:25:42;;;;;;;53.55;22.80;;;;;;;-1.58;98.63;100227.00;3121538;28;20113;-69
2024/01/09 06:27:13;;;;;;;48.92;22.52;;;;;;;-1.58;98.46;100232.13;3121166;28;20053;-68
2024/01/09 06:28:45;;;;;;;42.83;17.42;;;;;;;-1.64;98.32;100226.09;3120675;28;20103;-69
2024/01/09 06:30:16;;;;;;;40.40;16.45;;;;;;;-1.59;98.36;100227.84;3118673;28;20104;-67
2024/01/09 06:31:48;;;;;;;37.55;16.50;;;;;;;-1.58;98.25;100229.56;3121152;28;20052;-72
2024/01/09 06:33:19;;;;;;;39.78;15.55;;;;;;;-1.56;98.22;100230.44;3121123;28;20111;-65
2024/01/09 06:34:52;;;;;;;39.63;14.50;;;;;;;-1.53;98.38;100233.03;3121065;28;20057;-62
2024/01/09 06:36:24;;;;;;;;;;;;;;;-1.63;98.10;100229.50;3121657;28;20053;-62
2024/01/09 06:37:54;;;;;;;38.05;16.23;;;;;;;-1.56;98.54;100238.09;3121547;28;19933;-63
2024/01/09 06:39:26;;;;;;;41.50;16.52;;;;;;;-1.49;98.49;100250.09;3121064;28;20541;-63
2024/01/09 06:40:58;;;;;;;30.83;13.90;;;;;;;-1.48;98.28;100246.69;3120903;28;20045;-62
2024/01/09 06:42:30;;;;;;;34.95;13.07;;;;;;;-1.48;98.08;100252.66;3120902;28;20045;-63
2024/01/09 06:44:01;;;;;;;32.90;14.77;;;;;;;-1.49;97.60;100253.50;3120928;28;20438;-63
2024/01/09 06:45:33;;;;;;;36.63;13.93;;;;;;;-1.50;97.39;100258.59;3124464;28;20053;-62
2024/01/09 06:47:04;;;;;;;28.95;13.18;;;;;;;-1.52;97.32;100258.56;3120727;28;20042;-62
2024/01/09 06:48:36;;;;;;;30.00;13.05;;;;;;;-1.58;97.25;100247.44;3119465;28;20045;-62
2024/01/09 06:50:10;;;;;;;35.65;15.18;;;;;;;-2.27;97.08;100142.00;3111064;28;20056;-67
2024/01/09 06:51:43;;;;;;;33.05;14.57;;;;;;;-1.55;96.96;100262.78;3121081;28;20123;-66
2024/01/09 06:53:14;;;;;;;35.83;13.45;;;;;;;-1.57;96.85;100272.97;3120926;28;20056;-66
2024/01/09 06:54:46;;;;;;;34.42;13.40;;;;;;;-1.61;96.40;100273.78;3114167;28;20045;-66
2024/01/09 06:56:16;;;;;;;34.72;14.38;;;;;;;-1.62;96.48;100274.63;3116419;28;20081;-66
2024/01/09 06:57:49;;;;;;;64.88;20.98;;;;;;;-1.61;96.07;100274.63;3118960;28;20057;-66
2024/01/09 06:59:21;;;;;;;38.08;15.90;;;;;;;-1.63;96.11;100278.91;3120689;28;20049;-64
2024/01/09 07:00:52;;;;;;;36.53;14.77;;;;;;;-1.62;96.05;100280.59;3121199;28;20049;-66
2024/01/09 07:02:23;;;;;;;36.58;13.98;;;;;;;-2.01;95.94;100229.03;3120676;28;20050;-66
2024/01/09 07:03:54;;;;;;;37.45;16.13;;;;;;;-1.63;96.05;100291.66;3123380;28;20049;-67